createdAt,value
2018-06-11T00:00:41.111Z,17.28
2018-06-11T00:02:33.863Z,17.20
2018-06-11T00:03:33.758Z,17.25
2018-06-11T00:05:27.024Z,17.31
2018-06-11T00:06:26.926Z,17.34
2018-06-11T00:08:20.268Z,17.39
2018-06-11T00:09:19.565Z,17.38
2018-06-11T00:11:12.445Z,17.54
2018-06-11T00:12:12.325Z,17.56
2018-06-11T00:14:05.188Z,17.63
2018-06-11T00:15:05.085Z,17.68
2018-06-11T00:16:57.924Z,17.56
2018-06-11T00:17:57.827Z,17.50
2018-06-11T00:19:50.668Z,17.49
2018-06-11T00:20:50.560Z,17.46
2018-06-11T00:22:43.360Z,17.31
2018-06-11T00:23:43.238Z,17.32
2018-06-11T00:25:35.980Z,17.24
2018-06-11T00:26:35.876Z,17.28
2018-06-11T00:28:28.726Z,17.25
2018-06-11T00:29:28.618Z,17.27
2018-06-11T00:31:21.368Z,17.04
2018-06-11T00:32:21.281Z,17.10
2018-06-11T00:34:14.095Z,17.10
2018-06-11T00:35:14.021Z,17.12
2018-06-11T00:37:07.357Z,17.12
2018-06-11T00:38:06.752Z,17.16
2018-06-11T00:39:59.519Z,17.04
2018-06-11T00:40:59.449Z,17.13
2018-06-11T00:42:52.682Z,17.14
2018-06-11T00:43:52.557Z,17.13
2018-06-11T00:45:45.397Z,17.10
2018-06-11T00:46:45.313Z,17.12
2018-06-11T00:48:38.058Z,17.07
2018-06-11T00:49:37.975Z,16.98
2018-06-11T00:51:30.818Z,17.01
2018-06-11T00:52:30.752Z,16.97
2018-06-11T00:54:23.550Z,16.87
2018-06-11T00:55:23.452Z,16.70
2018-06-11T00:57:16.215Z,16.79
2018-06-11T00:58:16.102Z,16.74
2018-06-11T01:00:08.846Z,16.73
2018-06-11T01:01:08.751Z,16.70
2018-06-11T01:03:01.495Z,16.72
2018-06-11T01:04:01.409Z,16.73
2018-06-11T01:05:54.239Z,16.80
2018-06-11T01:06:54.145Z,16.77
2018-06-11T01:08:46.917Z,16.76
2018-06-11T01:09:46.790Z,16.70
2018-06-11T01:11:40.150Z,16.70
2018-06-11T01:12:39.558Z,16.72
2018-06-11T01:14:32.308Z,16.73
2018-06-11T01:15:32.185Z,16.61
2018-06-11T01:17:25.062Z,16.62
2018-06-11T01:18:24.945Z,16.52
2018-06-11T01:20:17.781Z,16.40
2018-06-11T01:21:17.679Z,16.40
2018-06-11T01:23:10.459Z,16.43
2018-06-11T01:24:10.332Z,16.37
2018-06-11T01:26:03.183Z,16.36
2018-06-11T01:27:03.084Z,16.39
2018-06-11T01:28:55.959Z,16.47
2018-06-11T01:29:55.833Z,16.46
2018-06-11T01:31:48.676Z,16.52
2018-06-11T01:32:48.581Z,16.51
2018-06-11T01:34:41.467Z,16.67
2018-06-11T01:35:41.349Z,16.65
2018-06-11T01:37:34.193Z,16.65
2018-06-11T01:38:34.098Z,16.55
2018-06-11T01:40:27.051Z,16.40
2018-06-11T01:41:26.942Z,16.37
2018-06-11T01:43:19.806Z,16.24
2018-06-11T01:44:19.676Z,16.32
2018-06-11T01:46:12.544Z,16.37
2018-06-11T01:47:12.433Z,16.36
2018-06-11T01:49:05.297Z,16.36
2018-06-11T01:50:05.181Z,16.36
2018-06-11T01:51:58.026Z,16.33
2018-06-11T01:52:57.944Z,16.39
2018-06-11T01:54:50.898Z,16.34
2018-06-11T01:55:50.786Z,16.29
2018-06-11T01:57:43.623Z,16.25
2018-06-11T01:58:43.555Z,16.22
2018-06-11T02:00:36.408Z,16.26
2018-06-11T02:01:36.285Z,16.29
2018-06-11T02:03:29.163Z,16.29
2018-06-11T02:04:29.040Z,16.24
2018-06-11T02:06:21.972Z,16.28
2018-06-11T02:07:21.886Z,16.28
2018-06-11T02:09:14.736Z,16.26
2018-06-11T02:10:14.636Z,16.10
2018-06-11T02:12:07.530Z,16.13
2018-06-11T02:13:07.388Z,16.16
2018-06-11T02:15:00.235Z,16.10
2018-06-11T02:16:00.135Z,16.08
2018-06-11T02:17:53.984Z,16.06
2018-06-11T02:18:53.301Z,16.10
2018-06-11T02:20:46.174Z,16.10
2018-06-11T02:21:46.078Z,15.99
2018-06-11T02:23:38.909Z,16.09
2018-06-11T02:24:38.694Z,16.10
2018-06-11T02:26:31.529Z,16.06
2018-06-11T02:27:31.438Z,15.99
2018-06-11T02:29:24.200Z,16.08
2018-06-11T02:30:24.092Z,16.13
2018-06-11T02:32:16.831Z,15.98
2018-06-11T02:33:16.736Z,16.00
2018-06-11T02:35:09.584Z,15.90
2018-06-11T02:36:09.490Z,15.93
2018-06-11T02:38:02.240Z,15.88
2018-06-11T02:39:02.161Z,15.95
2018-06-11T02:40:55.006Z,15.95
2018-06-11T02:41:54.787Z,15.88
2018-06-11T02:43:47.557Z,15.90
2018-06-11T02:44:47.430Z,15.87
2018-06-11T02:46:40.280Z,15.87
2018-06-11T02:47:40.194Z,15.83
2018-06-11T02:49:33.436Z,15.83
2018-06-11T02:50:33.332Z,15.84
2018-06-11T02:52:26.097Z,15.81
2018-06-11T02:53:25.983Z,15.84
2018-06-11T02:55:19.281Z,15.80
2018-06-11T02:56:19.166Z,15.78
2018-06-11T02:58:11.986Z,15.80
2018-06-11T02:59:11.904Z,15.81
2018-06-11T03:01:05.779Z,15.95
2018-06-11T03:02:05.070Z,15.93
2018-06-11T03:03:57.896Z,15.87
2018-06-11T03:04:57.793Z,15.93
2018-06-11T03:06:50.544Z,15.87
2018-06-11T03:07:50.447Z,15.93
2018-06-11T03:09:43.300Z,15.87
2018-06-11T03:10:43.208Z,15.84
2018-06-11T03:12:35.940Z,15.80
2018-06-11T03:13:35.849Z,15.78
2018-06-11T03:15:28.736Z,15.69
2018-06-11T03:16:28.590Z,15.66
2018-06-11T03:18:21.334Z,15.78
2018-06-11T03:19:21.256Z,15.77
2018-06-11T03:21:13.986Z,15.77
2018-06-11T03:22:13.892Z,15.80
2018-06-11T03:24:06.740Z,15.81
2018-06-11T03:25:06.633Z,15.78
2018-06-11T03:27:00.021Z,15.81
2018-06-11T03:27:59.811Z,15.81
2018-06-11T03:29:52.560Z,15.77
2018-06-11T03:30:52.449Z,15.78
2018-06-11T03:32:45.187Z,15.66
2018-06-11T03:33:45.107Z,15.69
2018-06-11T03:35:37.950Z,15.65
2018-06-11T03:36:37.834Z,15.63
2018-06-11T03:38:30.584Z,15.60
2018-06-11T03:39:30.484Z,15.63
2018-06-11T03:41:23.352Z,15.60
2018-06-11T03:42:23.272Z,15.65
2018-06-11T03:44:16.038Z,15.63
2018-06-11T03:45:15.886Z,15.66
2018-06-11T03:47:08.725Z,15.66
2018-06-11T03:48:08.629Z,15.76
2018-06-11T03:50:01.491Z,15.65
2018-06-11T03:51:01.382Z,15.62
2018-06-11T03:52:54.226Z,15.60
2018-06-11T03:53:54.149Z,15.63
2018-06-11T03:55:47.021Z,15.60
2018-06-11T03:56:46.887Z,15.62
2018-06-11T03:58:39.630Z,15.65
2018-06-11T03:59:39.527Z,15.59
2018-06-11T04:01:32.403Z,15.58
2018-06-11T04:02:32.295Z,15.66
2018-06-11T04:04:25.059Z,15.59
2018-06-11T04:05:24.919Z,15.59
2018-06-11T04:07:17.766Z,15.52
2018-06-11T04:08:17.668Z,15.63
2018-06-11T04:10:10.535Z,15.69
2018-06-11T04:11:10.497Z,15.70
2018-06-11T04:13:03.260Z,15.63
2018-06-11T04:14:03.211Z,15.60
2018-06-11T04:15:56.040Z,15.63
2018-06-11T04:16:55.821Z,15.59
2018-06-11T04:18:48.673Z,15.52
2018-06-11T04:19:48.571Z,15.58
2018-06-11T04:21:41.339Z,15.36
2018-06-11T04:22:41.243Z,15.43
2018-06-11T04:24:34.092Z,15.43
2018-06-11T04:25:33.964Z,15.41
2018-06-11T04:27:26.705Z,15.47
2018-06-11T04:28:26.614Z,15.45
2018-06-11T04:30:19.378Z,15.54
2018-06-11T04:31:19.280Z,15.56
2018-06-11T04:33:12.003Z,15.52
2018-06-11T04:34:11.930Z,15.51
2018-06-11T04:36:04.683Z,15.45
2018-06-11T04:37:04.554Z,15.48
2018-06-11T04:38:57.392Z,15.50
2018-06-11T04:39:57.301Z,15.47
2018-06-11T04:41:51.081Z,15.54
2018-06-11T04:42:50.994Z,15.47
2018-06-11T04:44:43.829Z,15.54
2018-06-11T04:45:43.641Z,15.50
2018-06-11T04:47:36.475Z,15.52
2018-06-11T04:48:36.372Z,15.60
2018-06-11T04:50:29.143Z,15.50
2018-06-11T04:51:29.022Z,15.51
2018-06-11T04:53:21.856Z,15.50
2018-06-11T04:54:21.792Z,15.56
2018-06-11T04:56:14.545Z,15.50
2018-06-11T04:57:14.421Z,15.60
2018-06-11T04:59:07.266Z,15.62
2018-06-11T05:00:07.168Z,15.58
2018-06-11T05:01:59.929Z,15.51
2018-06-11T05:02:59.811Z,15.59
2018-06-11T05:04:52.568Z,15.62
2018-06-11T05:05:52.476Z,15.65
2018-06-11T05:07:45.308Z,15.69
2018-06-11T05:08:45.225Z,15.72
2018-06-11T05:10:37.953Z,15.62
2018-06-11T05:11:37.875Z,15.62
2018-06-11T05:13:30.616Z,15.63
2018-06-11T05:14:30.506Z,15.76
2018-06-11T05:16:24.286Z,15.63
2018-06-11T05:17:24.174Z,15.60
2018-06-11T05:19:16.915Z,15.73
2018-06-11T05:20:16.827Z,15.60
2018-06-11T05:22:10.100Z,15.72
2018-06-11T05:23:09.993Z,15.69
2018-06-11T05:25:02.744Z,15.72
2018-06-11T05:26:02.621Z,15.63
2018-06-11T05:27:55.390Z,15.52
2018-06-11T05:28:55.302Z,15.54
2018-06-11T05:30:48.120Z,15.56
2018-06-11T05:31:48.021Z,15.60
2018-06-11T05:33:40.801Z,15.52
2018-06-11T05:34:40.726Z,15.41
2018-06-11T05:36:33.416Z,15.47
2018-06-11T05:37:33.321Z,15.44
2018-06-11T05:39:26.596Z,15.48
2018-06-11T05:40:26.538Z,15.60
2018-06-11T05:42:19.231Z,15.58
2018-06-11T05:43:19.148Z,15.54
2018-06-11T05:45:11.871Z,15.62
2018-06-11T05:46:11.778Z,15.62
2018-06-11T05:48:04.545Z,15.63
2018-06-11T05:49:04.425Z,15.69
2018-06-11T05:50:57.260Z,15.63
2018-06-11T05:51:57.171Z,15.62
2018-06-11T05:53:50.558Z,15.62
2018-06-11T05:54:50.438Z,15.59
2018-06-11T05:56:43.175Z,15.59
2018-06-11T05:57:43.077Z,15.56
2018-06-11T05:59:35.836Z,15.59
2018-06-11T06:00:35.739Z,15.59
2018-06-11T06:02:28.465Z,15.62
2018-06-11T06:03:28.369Z,15.68
2018-06-11T06:05:21.138Z,15.78
2018-06-11T06:06:21.026Z,15.81
2018-06-11T06:08:13.793Z,15.70
2018-06-11T06:09:13.679Z,15.72
2018-06-11T06:11:06.557Z,15.87
2018-06-11T06:12:06.416Z,15.90
2018-06-11T06:13:59.156Z,15.90
2018-06-11T06:14:59.070Z,15.88
2018-06-11T06:16:51.927Z,15.87
2018-06-11T06:17:51.714Z,15.93
2018-06-11T06:19:44.491Z,15.81
2018-06-11T06:20:44.371Z,15.84
2018-06-11T06:22:37.207Z,15.96
2018-06-11T06:23:37.116Z,15.88
2018-06-11T06:25:29.865Z,15.98
2018-06-11T06:26:29.766Z,16.14
2018-06-11T06:28:22.604Z,16.08
2018-06-11T06:29:22.502Z,16.10
2018-06-11T06:31:15.269Z,16.05
2018-06-11T06:32:15.157Z,16.08
2018-06-11T06:34:07.959Z,15.99
2018-06-11T06:35:07.797Z,16.03
2018-06-11T06:37:00.684Z,15.98
2018-06-11T06:38:00.553Z,15.99
2018-06-11T06:39:53.425Z,15.90
2018-06-11T06:40:53.296Z,15.90
2018-06-11T06:42:46.051Z,15.87
2018-06-11T06:43:45.945Z,15.85
2018-06-11T06:45:38.831Z,15.88
2018-06-11T06:46:38.693Z,15.90
2018-06-11T06:48:31.443Z,16.08
2018-06-11T06:49:31.347Z,16.26
2018-06-11T06:51:24.200Z,16.36
2018-06-11T06:52:24.105Z,16.43
2018-06-11T06:54:16.844Z,16.49
2018-06-11T06:55:16.764Z,16.36
2018-06-11T06:57:10.014Z,16.34
2018-06-11T06:58:09.900Z,16.36
2018-06-11T07:00:02.650Z,16.29
2018-06-11T07:01:02.551Z,16.36
2018-06-11T07:02:55.427Z,16.44
2018-06-11T07:03:55.288Z,16.55
2018-06-11T07:05:48.053Z,16.55
2018-06-11T07:06:47.954Z,16.33
2018-06-11T07:08:40.781Z,16.21
2018-06-11T07:09:40.755Z,16.28
2018-06-11T07:11:33.475Z,16.32
2018-06-11T07:12:33.352Z,16.49
2018-06-11T07:14:26.180Z,16.61
2018-06-11T07:15:26.100Z,16.59
2018-06-11T07:17:18.846Z,16.65
2018-06-11T07:18:18.731Z,16.54
2018-06-11T07:20:11.619Z,16.62
2018-06-11T07:21:11.484Z,16.59
2018-06-11T07:23:04.325Z,16.69
2018-06-11T07:24:04.233Z,16.65
2018-06-11T07:25:57.103Z,16.79
2018-06-11T07:26:56.913Z,16.73
2018-06-11T07:28:50.251Z,16.77
2018-06-11T07:29:49.531Z,16.62
2018-06-11T07:31:42.392Z,16.79
2018-06-11T07:32:42.284Z,16.73
2018-06-11T07:34:35.020Z,16.59
2018-06-11T07:35:34.937Z,16.55
2018-06-11T07:37:27.687Z,16.65
2018-06-11T07:38:27.568Z,16.73
2018-06-11T07:40:20.365Z,16.58
2018-06-11T07:41:20.237Z,16.65
2018-06-11T07:43:12.990Z,16.59
2018-06-11T07:44:12.870Z,16.59
2018-06-11T07:46:05.724Z,16.73
2018-06-11T07:47:05.631Z,16.88
2018-06-11T07:48:58.511Z,16.83
2018-06-11T07:49:58.365Z,16.80
2018-06-11T07:51:51.738Z,16.95
2018-06-11T07:52:51.565Z,16.95
2018-06-11T07:54:44.364Z,16.97
2018-06-11T07:55:44.276Z,16.77
2018-06-11T07:57:37.029Z,17.01
2018-06-11T07:58:36.924Z,17.10
2018-06-11T08:00:29.776Z,17.20
2018-06-11T08:01:29.727Z,17.16
2018-06-11T08:03:22.457Z,17.10
2018-06-11T08:04:22.328Z,17.02
2018-06-11T08:06:15.194Z,17.01
2018-06-11T08:07:15.067Z,17.10
2018-06-11T08:09:07.941Z,16.84
2018-06-11T08:10:07.816Z,16.83
2018-06-11T08:12:00.657Z,16.79
2018-06-11T08:13:00.570Z,16.70
2018-06-11T08:14:53.426Z,16.87
2018-06-11T08:15:53.330Z,16.91
2018-06-11T08:17:46.173Z,16.90
2018-06-11T08:18:46.071Z,16.95
2018-06-11T08:20:38.825Z,16.97
2018-06-11T08:21:38.735Z,17.01
2018-06-11T08:23:31.470Z,17.16
2018-06-11T08:24:31.399Z,17.06
2018-06-11T08:26:25.128Z,17.06
2018-06-11T08:27:25.083Z,17.04
2018-06-11T08:29:17.887Z,16.98
2018-06-11T08:30:17.776Z,16.99
2018-06-11T08:32:10.623Z,17.06
2018-06-11T08:33:10.553Z,17.01
2018-06-11T08:35:03.803Z,17.06
2018-06-11T08:36:03.738Z,16.92
2018-06-11T08:37:56.584Z,16.99
2018-06-11T08:38:56.444Z,17.04
2018-06-11T08:40:49.188Z,17.27
2018-06-11T08:41:49.087Z,17.38
2018-06-11T08:43:41.938Z,17.53
2018-06-11T08:44:41.840Z,17.41
2018-06-11T08:46:34.585Z,17.22
2018-06-11T08:47:34.489Z,17.10
2018-06-11T08:49:27.363Z,17.37
2018-06-11T08:50:27.238Z,17.43
2018-06-11T08:52:20.108Z,17.53
2018-06-11T08:53:19.992Z,17.49
2018-06-11T08:55:12.838Z,17.25
2018-06-11T08:56:12.752Z,17.39
2018-06-11T08:58:05.589Z,17.50
2018-06-11T08:59:05.477Z,17.66
2018-06-11T09:00:58.357Z,17.28
2018-06-11T09:01:58.193Z,17.31
2018-06-11T09:03:51.008Z,17.50
2018-06-11T09:04:50.888Z,17.54
2018-06-11T09:06:43.728Z,17.75
2018-06-11T09:07:43.644Z,17.57
2018-06-11T09:09:36.432Z,17.57
2018-06-11T09:10:36.281Z,17.56
2018-06-11T09:12:29.126Z,17.79
2018-06-11T09:13:29.017Z,17.97
2018-06-11T09:15:21.892Z,18.12
2018-06-11T09:16:21.689Z,18.06
2018-06-11T09:18:14.604Z,17.94
2018-06-11T09:19:14.422Z,17.96
2018-06-11T09:21:07.305Z,17.99
2018-06-11T09:22:07.177Z,18.02
2018-06-11T09:23:59.908Z,17.73
2018-06-11T09:24:59.828Z,17.75
2018-06-11T09:26:52.683Z,18.01
2018-06-11T09:27:52.600Z,18.23
2018-06-11T09:29:45.453Z,18.02
2018-06-11T09:30:45.319Z,17.94
2018-06-11T09:32:38.213Z,17.91
2018-06-11T09:33:38.068Z,17.96
2018-06-11T09:35:30.812Z,17.99
2018-06-11T09:36:30.731Z,18.12
2018-06-11T09:38:24.012Z,18.45
2018-06-11T09:39:23.882Z,18.68
2018-06-11T09:41:17.236Z,19.16
2018-06-11T09:42:16.622Z,19.19
2018-06-11T09:44:09.521Z,18.82
2018-06-11T09:45:09.375Z,18.78
2018-06-11T09:47:02.120Z,18.63
2018-06-11T09:48:02.032Z,18.67
2018-06-11T09:49:54.912Z,18.88
2018-06-11T09:50:54.781Z,18.74
2018-06-11T09:52:47.509Z,18.63
2018-06-11T09:53:47.421Z,18.51
2018-06-11T09:55:40.335Z,18.58
2018-06-11T09:56:40.183Z,18.61
2018-06-11T09:58:33.019Z,18.70
2018-06-11T09:59:32.911Z,18.74
2018-06-11T10:01:25.791Z,19.04
2018-06-11T10:02:25.666Z,19.24
2018-06-11T10:04:18.419Z,19.50
2018-06-11T10:05:18.325Z,19.53
2018-06-11T10:07:11.198Z,19.50
2018-06-11T10:08:11.073Z,19.26
2018-06-11T10:10:03.934Z,19.17
2018-06-11T10:11:03.822Z,19.05
2018-06-11T10:12:57.111Z,19.30
2018-06-11T10:13:57.010Z,19.04
2018-06-11T10:15:49.847Z,19.30
2018-06-11T10:16:49.722Z,19.30
2018-06-11T10:18:42.598Z,19.49
2018-06-11T10:19:42.508Z,19.26
2018-06-11T10:21:35.314Z,19.35
2018-06-11T10:22:35.217Z,19.35
2018-06-11T10:24:28.100Z,19.52
2018-06-11T10:25:27.983Z,19.63
2018-06-11T10:27:20.813Z,19.78
2018-06-11T10:28:20.717Z,19.82
2018-06-11T10:30:13.671Z,20.04
2018-06-11T10:31:13.484Z,20.14
2018-06-11T10:33:06.315Z,20.34
2018-06-11T10:34:06.237Z,20.55
2018-06-11T10:35:59.087Z,20.83
2018-06-11T10:36:58.971Z,20.97
2018-06-11T10:38:51.835Z,20.75
2018-06-11T10:39:51.735Z,20.58
2018-06-11T10:41:44.607Z,20.74
2018-06-11T10:42:44.502Z,20.67
2018-06-11T10:44:37.358Z,20.71
2018-06-11T10:45:37.225Z,20.83
2018-06-11T10:47:31.036Z,20.93
2018-06-11T10:48:30.897Z,20.88
2018-06-11T10:50:23.777Z,20.42
2018-06-11T10:51:23.637Z,20.18
2018-06-11T10:53:16.525Z,19.92
2018-06-11T10:54:16.385Z,20.04
2018-06-11T10:56:09.638Z,20.46
2018-06-11T10:57:09.556Z,20.58
2018-06-11T10:59:02.414Z,21.00
2018-06-11T11:00:02.298Z,21.04
2018-06-11T11:01:55.137Z,21.01
2018-06-11T11:02:55.078Z,20.83
2018-06-11T11:04:47.928Z,20.89
2018-06-11T11:05:47.797Z,20.79
2018-06-11T11:07:40.654Z,20.58
2018-06-11T11:08:40.567Z,20.67
2018-06-11T11:10:33.420Z,20.74
2018-06-11T11:11:33.317Z,20.73
2018-06-11T11:13:26.155Z,21.16
2018-06-11T11:14:26.113Z,21.41
2018-06-11T11:16:18.929Z,21.47
2018-06-11T11:17:18.788Z,21.34
2018-06-11T11:19:11.639Z,21.34
2018-06-11T11:20:11.538Z,21.35
2018-06-11T11:22:04.422Z,21.32
2018-06-11T11:23:04.315Z,21.23
2018-06-11T11:24:57.160Z,21.26
2018-06-11T11:25:57.041Z,21.20
2018-06-11T11:27:49.922Z,21.62
2018-06-11T11:28:49.802Z,21.82
2018-06-11T11:30:42.639Z,21.75
2018-06-11T11:31:42.549Z,21.82
2018-06-11T11:33:35.434Z,21.96
2018-06-11T11:34:35.295Z,22.22
2018-06-11T11:36:28.273Z,22.06
2018-06-11T11:37:28.045Z,22.01
2018-06-11T11:39:20.926Z,22.11
2018-06-11T11:40:20.790Z,22.18
2018-06-11T11:42:14.163Z,21.96
2018-06-11T11:43:14.057Z,22.19
2018-06-11T11:45:06.932Z,22.18
2018-06-11T11:46:06.811Z,22.19
2018-06-11T11:47:59.650Z,22.19
2018-06-11T11:48:59.566Z,22.11
2018-06-11T11:50:52.426Z,22.28
2018-06-11T11:51:52.322Z,22.43
2018-06-11T11:53:45.141Z,22.44
2018-06-11T11:54:45.057Z,22.37
2018-06-11T11:56:37.928Z,22.43
2018-06-11T11:57:37.803Z,22.44
2018-06-11T11:59:30.646Z,22.92
2018-06-11T12:00:30.583Z,23.29
2018-06-11T12:02:23.427Z,23.76
2018-06-11T12:03:23.327Z,23.97
2018-06-11T12:05:16.148Z,23.29
2018-06-11T12:06:16.052Z,22.99
2018-06-11T12:08:08.938Z,22.58
2018-06-11T12:09:08.816Z,22.67
2018-06-11T12:11:02.051Z,22.99
2018-06-11T12:12:01.969Z,23.01
2018-06-11T12:13:54.828Z,22.95
2018-06-11T12:14:54.719Z,23.03
2018-06-11T12:16:48.083Z,22.91
2018-06-11T12:17:47.972Z,22.81
2018-06-11T12:19:40.854Z,22.67
2018-06-11T12:20:40.737Z,22.73
2018-06-11T12:22:33.559Z,22.78
2018-06-11T12:23:33.485Z,22.89
2018-06-11T12:25:26.373Z,22.89
2018-06-11T12:26:26.218Z,23.10
2018-06-11T12:28:19.089Z,23.15
2018-06-11T12:29:18.982Z,23.07
2018-06-11T12:31:11.839Z,22.88
2018-06-11T12:32:11.743Z,22.81
2018-06-11T12:34:04.570Z,22.73
2018-06-11T12:35:04.519Z,22.89
2018-06-11T12:36:57.355Z,23.44
2018-06-11T12:37:57.223Z,23.70
2018-06-11T12:39:50.092Z,24.01
2018-06-11T12:40:49.973Z,23.92
2018-06-11T12:42:43.349Z,23.89
2018-06-11T12:43:43.250Z,23.76
2018-06-11T12:45:36.089Z,23.59
2018-06-11T12:46:35.983Z,23.74
2018-06-11T12:48:28.890Z,23.69
2018-06-11T12:49:28.730Z,23.70
2018-06-11T12:51:21.576Z,23.49
2018-06-11T12:52:21.480Z,23.36
2018-06-11T12:54:14.360Z,23.86
2018-06-11T12:55:14.259Z,24.43
2018-06-11T12:57:07.094Z,24.51
2018-06-11T12:58:06.983Z,24.08
2018-06-11T12:59:59.860Z,24.22
2018-06-11T13:00:59.733Z,24.01
2018-06-11T13:02:52.584Z,23.48
2018-06-11T13:03:52.476Z,23.39
2018-06-11T13:05:45.350Z,23.60
2018-06-11T13:06:45.231Z,23.59
2018-06-11T13:08:38.071Z,23.76
2018-06-11T13:09:37.973Z,23.89
2018-06-11T13:11:31.372Z,23.94
2018-06-11T13:12:31.249Z,23.98
2018-06-11T13:14:23.576Z,23.91
2018-06-11T13:15:23.487Z,24.23
2018-06-11T13:17:16.362Z,24.34
2018-06-11T13:18:16.230Z,24.56
2018-06-11T13:20:09.063Z,24.93
2018-06-11T13:21:08.982Z,25.11
2018-06-11T13:23:01.834Z,25.06
2018-06-11T13:24:01.744Z,24.93
2018-06-11T13:25:54.611Z,24.33
2018-06-11T13:26:54.487Z,24.55
2018-06-11T13:28:47.349Z,24.48
2018-06-11T13:29:47.224Z,24.29
2018-06-11T13:31:40.121Z,24.38
2018-06-11T13:32:39.988Z,24.38
2018-06-11T13:34:32.860Z,24.53
2018-06-11T13:35:32.742Z,24.34
2018-06-11T13:37:25.570Z,24.43
2018-06-11T13:38:25.509Z,24.37
2018-06-11T13:40:18.351Z,24.21
2018-06-11T13:41:18.247Z,24.13
2018-06-11T13:43:11.079Z,24.13
2018-06-11T13:44:10.972Z,24.36
2018-06-11T13:46:03.841Z,24.68
2018-06-11T13:47:03.739Z,24.58
2018-06-11T13:48:56.573Z,24.52
2018-06-11T13:49:56.491Z,24.71
2018-06-11T13:51:49.339Z,24.31
2018-06-11T13:52:49.229Z,24.10
2018-06-11T13:54:42.066Z,23.88
2018-06-11T13:55:41.980Z,23.92
2018-06-11T13:57:34.833Z,24.40
2018-06-11T13:58:34.719Z,24.52
2018-06-11T14:00:27.562Z,24.86
2018-06-11T14:01:27.482Z,25.12
2018-06-11T14:03:20.360Z,25.43
2018-06-11T14:04:20.242Z,25.22
2018-06-11T14:06:13.066Z,24.94
2018-06-11T14:07:12.995Z,24.63
2018-06-11T14:09:05.852Z,24.36
2018-06-11T14:10:05.733Z,24.52
2018-06-11T14:11:58.578Z,24.79
2018-06-11T14:12:58.482Z,24.84
2018-06-11T14:14:51.331Z,25.23
2018-06-11T14:15:51.240Z,25.04
2018-06-11T14:17:44.080Z,25.11
2018-06-11T14:18:43.992Z,25.26
2018-06-11T14:20:36.869Z,25.34
2018-06-11T14:21:36.730Z,25.11
2018-06-11T14:23:29.573Z,25.26
2018-06-11T14:24:29.483Z,25.31
2018-06-11T14:26:22.324Z,25.38
2018-06-11T14:27:22.237Z,25.14
2018-06-11T14:29:15.590Z,24.52
2018-06-11T14:30:15.488Z,24.43
2018-06-11T14:32:08.728Z,24.53
2018-06-11T14:33:08.651Z,24.71
2018-06-11T14:35:01.499Z,24.53
2018-06-11T14:36:01.408Z,24.38
2018-06-11T14:37:54.248Z,24.70
2018-06-11T14:38:54.161Z,24.70
2018-06-11T14:40:47.018Z,24.71
2018-06-11T14:41:46.892Z,24.71
2018-06-11T14:43:39.741Z,24.31
2018-06-11T14:44:39.659Z,24.28
2018-06-11T14:46:32.495Z,24.28
2018-06-11T14:47:32.409Z,24.45
2018-06-11T14:49:25.226Z,24.94
2018-06-11T14:50:25.153Z,25.18
2018-06-11T14:52:18.073Z,25.30
2018-06-11T14:53:17.899Z,25.09
2018-06-11T14:55:10.737Z,24.86
2018-06-11T14:56:10.654Z,24.62
2018-06-11T14:58:03.502Z,24.31
2018-06-11T14:59:03.407Z,24.31
2018-06-11T15:00:56.262Z,24.10
2018-06-11T15:01:56.141Z,23.98
2018-06-11T15:03:49.066Z,24.13
2018-06-11T15:04:48.899Z,24.34
2018-06-11T15:06:42.271Z,24.26
2018-06-11T15:07:41.661Z,24.10
2018-06-11T15:09:34.469Z,23.98
2018-06-11T15:10:34.392Z,23.96
2018-06-11T15:12:27.254Z,24.25
2018-06-11T15:13:27.150Z,24.33
2018-06-11T15:15:19.973Z,24.81
2018-06-11T15:16:19.893Z,24.76
2018-06-11T15:18:12.730Z,24.56
2018-06-11T15:19:12.640Z,24.40
2018-06-11T15:21:05.511Z,24.28
2018-06-11T15:22:05.408Z,24.37
2018-06-11T15:23:58.283Z,24.36
2018-06-11T15:24:58.216Z,24.45
2018-06-11T15:26:50.986Z,24.56
2018-06-11T15:27:50.894Z,24.53
2018-06-11T15:29:43.726Z,24.60
2018-06-11T15:30:43.636Z,24.51
2018-06-11T15:32:36.538Z,24.29
2018-06-11T15:33:36.388Z,24.16
2018-06-11T15:35:29.674Z,24.06
2018-06-11T15:36:29.544Z,23.94
2018-06-11T15:38:22.427Z,23.94
2018-06-11T15:39:22.284Z,24.11
2018-06-11T15:41:15.644Z,23.92
2018-06-11T15:42:15.609Z,23.91
2018-06-11T15:44:08.453Z,24.11
2018-06-11T15:45:08.313Z,24.01
2018-06-11T15:47:02.173Z,24.11
2018-06-11T15:48:02.071Z,24.11
2018-06-11T15:49:55.065Z,24.11
2018-06-11T15:50:54.913Z,24.08
2018-06-11T15:52:47.867Z,24.25
2018-06-11T15:53:47.769Z,24.28
2018-06-11T15:55:41.157Z,24.26
2018-06-11T15:56:41.051Z,24.22
2018-06-11T15:58:33.876Z,24.16
2018-06-11T15:59:33.790Z,24.10
2018-06-11T16:01:26.685Z,23.81
2018-06-11T16:02:26.641Z,23.94
2018-06-11T16:04:19.911Z,24.10
2018-06-11T16:05:19.331Z,23.88
2018-06-11T16:07:12.208Z,23.74
2018-06-11T16:08:12.042Z,23.86
2018-06-11T16:10:05.720Z,23.63
2018-06-11T16:11:05.620Z,23.54
2018-06-11T16:12:58.440Z,23.25
2018-06-11T16:13:58.357Z,23.29
2018-06-11T16:15:51.195Z,23.23
2018-06-11T16:16:51.114Z,23.08
2018-06-11T16:18:43.951Z,22.96
2018-06-11T16:19:43.856Z,23.06
2018-06-11T16:21:36.698Z,22.92
2018-06-11T16:22:36.662Z,23.03
2018-06-11T16:24:29.450Z,23.33
2018-06-11T16:25:29.349Z,23.25
2018-06-11T16:27:22.231Z,23.23
2018-06-11T16:28:22.107Z,23.15
2018-06-11T16:30:14.950Z,22.95
2018-06-11T16:31:14.852Z,22.80
2018-06-11T16:33:07.714Z,22.59
2018-06-11T16:34:07.606Z,22.43
2018-06-11T16:36:00.456Z,22.33
2018-06-11T16:37:00.406Z,22.38
2018-06-11T16:38:54.117Z,22.46
2018-06-11T16:39:54.028Z,22.44
2018-06-11T16:41:46.899Z,22.55
2018-06-11T16:42:46.779Z,22.64
2018-06-11T16:44:39.625Z,22.73
2018-06-11T16:45:39.516Z,22.64
2018-06-11T16:47:32.374Z,22.66
2018-06-11T16:48:32.284Z,22.64
2018-06-11T16:50:25.134Z,22.52
2018-06-11T16:51:25.028Z,22.62
2018-06-11T16:53:17.874Z,22.49
2018-06-11T16:54:17.770Z,22.55
2018-06-11T16:56:10.612Z,22.61
2018-06-11T16:57:10.520Z,22.61
2018-06-11T16:59:03.357Z,22.59
2018-06-11T17:00:03.267Z,22.67
2018-06-11T17:01:56.128Z,22.52
2018-06-11T17:02:56.025Z,22.49
2018-06-11T17:04:48.870Z,22.38
2018-06-11T17:05:48.773Z,22.22
2018-06-11T17:07:41.617Z,22.43
2018-06-11T17:08:41.527Z,22.46
2018-06-11T17:10:34.362Z,22.31
2018-06-11T17:11:34.291Z,22.18
2018-06-11T17:13:27.137Z,22.09
2018-06-11T17:14:27.011Z,22.11
2018-06-11T17:16:19.855Z,22.07
2018-06-11T17:17:19.783Z,22.01
2018-06-11T17:19:12.630Z,22.23
2018-06-11T17:20:12.569Z,22.23
2018-06-11T17:22:05.351Z,22.22
2018-06-11T17:23:05.296Z,22.23
2018-06-11T17:24:58.212Z,22.38
2018-06-11T17:25:58.012Z,22.37
2018-06-11T17:27:50.898Z,22.38
2018-06-11T17:28:50.762Z,22.37
2018-06-11T17:30:43.644Z,22.44
2018-06-11T17:31:43.507Z,22.48
2018-06-11T17:33:36.373Z,22.38
2018-06-11T17:34:36.318Z,22.33
2018-06-11T17:36:29.550Z,22.15
2018-06-11T17:37:29.432Z,22.01
2018-06-11T17:39:22.291Z,21.93
2018-06-11T17:40:22.168Z,21.96
2018-06-11T17:42:15.013Z,21.81
2018-06-11T17:43:14.932Z,21.88
2018-06-11T17:45:07.771Z,21.96
2018-06-11T17:46:07.667Z,21.97
2018-06-11T17:48:00.512Z,22.03
2018-06-11T17:49:00.412Z,22.03
2018-06-11T17:50:53.270Z,21.93
2018-06-11T17:51:53.167Z,21.91
2018-06-11T17:53:46.019Z,21.85
2018-06-11T17:54:45.924Z,21.77
2018-06-11T17:56:38.764Z,21.80
2018-06-11T17:57:38.683Z,21.82
2018-06-11T17:59:31.558Z,21.82
2018-06-11T18:00:31.466Z,21.80
2018-06-11T18:02:24.272Z,21.73
2018-06-11T18:03:24.170Z,21.75
2018-06-11T18:05:17.024Z,21.74
2018-06-11T18:06:16.951Z,21.81
2018-06-11T18:08:09.756Z,21.74
2018-06-11T18:09:09.674Z,21.74
2018-06-11T18:11:02.528Z,21.80
2018-06-11T18:12:02.460Z,21.82
2018-06-11T18:13:55.282Z,21.77
2018-06-11T18:14:55.172Z,21.73
2018-06-11T18:16:48.000Z,21.74
2018-06-11T18:17:47.905Z,21.71
2018-06-11T18:19:40.778Z,21.75
2018-06-11T18:20:40.707Z,21.78
2018-06-11T18:22:33.516Z,21.77
2018-06-11T18:23:33.508Z,21.80
2018-06-11T18:25:26.266Z,21.71
2018-06-11T18:26:26.214Z,21.66
2018-06-11T18:28:19.001Z,21.73
2018-06-11T18:29:18.912Z,21.71
2018-06-11T18:31:11.766Z,21.66
2018-06-11T18:32:11.657Z,21.67